sensor_id;sensor_type;location;lat;lon;timestamp;P1;durP1;ratioP1;P2;durP2;ratioP2
25531;SDS011;13429;48.816;9.118;2023-03-31T00:01:27;4.93;;;1.45;;
25531;SDS011;13429;48.816;9.118;2023-03-31T00:03:54;5.80;;;1.55;;
25531;SDS011;13429;48.816;9.118;2023-03-31T00:06:26;5.43;;;1.48;;
25531;SDS011;13429;48.816;9.118;2023-03-31T00:08:52;7.85;;;1.42;;
25531;SDS011;13429;48.816;9.118;2023-03-31T00:11:19;5.32;;;1.50;;
25531;SDS011;13429;48.816;9.118;2023-03-31T00:13:46;4.80;;;1.45;;
25531;SDS011;13429;48.816;9.118;2023-03-31T00:16:12;5.47;;;1.73;;
25531;SDS011;13429;48.816;9.118;2023-03-31T00:18:38;6.47;;;1.60;;
25531;SDS011;13429;48.816;9.118;2023-03-31T00:21:12;5.97;;;1.50;;
25531;SDS011;13429;48.816;9.118;2023-03-31T00:23:38;6.60;;;1.75;;
25531;SDS011;13429;48.816;9.118;2023-03-31T00:26:05;4.65;;;1.48;;
25531;SDS011;13429;48.816;9.118;2023-03-31T00:28:31;7.50;;;1.55;;
25531;SDS011;13429;48.816;9.118;2023-03-31T00:31:01;9.57;;;1.75;;
25531;SDS011;13429;48.816;9.118;2023-03-31T00:33:28;5.80;;;1.50;;
25531;SDS011;13429;48.816;9.118;2023-03-31T00:35:54;8.18;;;2.00;;
25531;SDS011;13429;48.816;9.118;2023-03-31T00:38:21;6.47;;;1.60;;
25531;SDS011;13429;48.816;9.118;2023-03-31T00:40:47;4.88;;;1.55;;
25531;SDS011;13429;48.816;9.118;2023-03-31T00:48:31;5.97;;;1.60;;
25531;SDS011;13429;48.816;9.118;2023-03-31T00:50:57;12.02;;;1.70;;
25531;SDS011;13429;48.816;9.118;2023-03-31T00:53:25;6.60;;;1.45;;
25531;SDS011;13429;48.816;9.118;2023-03-31T00:55:53;8.95;;;1.70;;
25531;SDS011;13429;48.816;9.118;2023-03-31T00:58:20;4.50;;;1.45;;
25531;SDS011;13429;48.816;9.118;2023-03-31T01:00:52;5.40;;;1.55;;
25531;SDS011;13429;48.816;9.118;2023-03-31T01:03:20;8.25;;;1.88;;
25531;SDS011;13429;48.816;9.118;2023-03-31T01:08:14;5.82;;;1.20;;
25531;SDS011;13429;48.816;9.118;2023-03-31T01:10:42;7.32;;;1.67;;
25531;SDS011;13429;48.816;9.118;2023-03-31T01:13:10;4.82;;;1.52;;
25531;SDS011;13429;48.816;9.118;2023-03-31T01:15:37;7.07;;;1.95;;
25531;SDS011;13429;48.816;9.118;2023-03-31T01:18:06;5.05;;;1.65;;
25531;SDS011;13429;48.816;9.118;2023-03-31T01:26:00;6.10;;;1.55;;
25531;SDS011;13429;48.816;9.118;2023-03-31T01:31:21;8.43;;;1.70;;
25531;SDS011;13429;48.816;9.118;2023-03-31T01:46:40;5.97;;;1.77;;
25531;SDS011;13429;48.816;9.118;2023-03-31T01:54:38;4.75;;;1.30;;
25531;SDS011;13429;48.816;9.118;2023-03-31T01:57:12;6.43;;;1.75;;
25531;SDS011;13429;48.816;9.118;2023-03-31T01:59:43;7.25;;;1.80;;
25531;SDS011;13429;48.816;9.118;2023-03-31T02:02:16;7.78;;;2.05;;
25531;SDS011;13429;48.816;9.118;2023-03-31T02:04:45;4.47;;;1.42;;
25531;SDS011;13429;48.816;9.118;2023-03-31T02:07:17;9.23;;;1.50;;
25531;SDS011;13429;48.816;9.118;2023-03-31T02:09:46;2.78;;;1.05;;
25531;SDS011;13429;48.816;9.118;2023-03-31T02:12:13;5.43;;;1.20;;
25531;SDS011;13429;48.816;9.118;2023-03-31T02:14:41;5.82;;;1.90;;
25531;SDS011;13429;48.816;9.118;2023-03-31T02:17:09;3.95;;;1.13;;
25531;SDS011;13429;48.816;9.118;2023-03-31T02:19:39;5.25;;;1.35;;
25531;SDS011;13429;48.816;9.118;2023-03-31T02:22:06;6.60;;;1.83;;
25531;SDS011;13429;48.816;9.118;2023-03-31T02:24:33;10.00;;;1.98;;
25531;SDS011;13429;48.816;9.118;2023-03-31T02:27:03;5.65;;;1.52;;
25531;SDS011;13429;48.816;9.118;2023-03-31T02:29:30;6.40;;;1.80;;
25531;SDS011;13429;48.816;9.118;2023-03-31T02:34:31;11.48;;;2.65;;
25531;SDS011;13429;48.816;9.118;2023-03-31T02:36:57;4.38;;;1.80;;
25531;SDS011;13429;48.816;9.118;2023-03-31T02:39:28;7.13;;;1.75;;
25531;SDS011;13429;48.816;9.118;2023-03-31T02:41:55;11.55;;;1.98;;
25531;SDS011;13429;48.816;9.118;2023-03-31T02:44:22;3.45;;;1.38;;
25531;SDS011;13429;48.816;9.118;2023-03-31T02:46:48;10.57;;;2.13;;
25531;SDS011;13429;48.816;9.118;2023-03-31T02:49:14;5.50;;;1.67;;
25531;SDS011;13429;48.816;9.118;2023-03-31T03:00:08;11.23;;;2.30;;
25531;SDS011;13429;48.816;9.118;2023-03-31T03:05:12;13.43;;;2.10;;
25531;SDS011;13429;48.816;9.118;2023-03-31T03:15:50;4.45;;;1.70;;
25531;SDS011;13429;48.816;9.118;2023-03-31T03:18:17;7.38;;;2.50;;
25531;SDS011;13429;48.816;9.118;2023-03-31T03:20:44;5.72;;;1.85;;
25531;SDS011;13429;48.816;9.118;2023-03-31T03:23:15;4.10;;;1.90;;
25531;SDS011;13429;48.816;9.118;2023-03-31T03:25:42;5.18;;;1.85;;
25531;SDS011;13429;48.816;9.118;2023-03-31T03:28:08;5.75;;;2.08;;
25531;SDS011;13429;48.816;9.118;2023-03-31T03:30:34;11.02;;;2.80;;
25531;SDS011;13429;48.816;9.118;2023-03-31T03:33:00;4.45;;;1.63;;
25531;SDS011;13429;48.816;9.118;2023-03-31T03:35:27;5.80;;;1.77;;
25531;SDS011;13429;48.816;9.118;2023-03-31T03:37:53;7.35;;;2.53;;
25531;SDS011;13429;48.816;9.118;2023-03-31T03:40:19;10.52;;;2.17;;
25531;SDS011;13429;48.816;9.118;2023-03-31T03:42:45;4.75;;;1.88;;
25531;SDS011;13429;48.816;9.118;2023-03-31T03:45:11;5.93;;;2.00;;
25531;SDS011;13429;48.816;9.118;2023-03-31T03:47:37;6.93;;;1.92;;
25531;SDS011;13429;48.816;9.118;2023-03-31T03:50:03;5.88;;;2.33;;
25531;SDS011;13429;48.816;9.118;2023-03-31T03:52:29;6.35;;;1.98;;
25531;SDS011;13429;48.816;9.118;2023-03-31T03:54:55;7.30;;;2.10;;
25531;SDS011;13429;48.816;9.118;2023-03-31T03:57:21;7.50;;;2.65;;
25531;SDS011;13429;48.816;9.118;2023-03-31T03:59:48;11.38;;;2.63;;
25531;SDS011;13429;48.816;9.118;2023-03-31T04:02:14;5.32;;;1.83;;
25531;SDS011;13429;48.816;9.118;2023-03-31T04:04:39;3.80;;;2.25;;
25531;SDS011;13429;48.816;9.118;2023-03-31T04:07:05;8.77;;;1.90;;
25531;SDS011;13429;48.816;9.118;2023-03-31T04:09:31;6.00;;;2.45;;
25531;SDS011;13429;48.816;9.118;2023-03-31T04:11:58;4.57;;;2.67;;
25531;SDS011;13429;48.816;9.118;2023-03-31T04:14:24;6.05;;;2.83;;
25531;SDS011;13429;48.816;9.118;2023-03-31T04:16:50;10.60;;;2.50;;
25531;SDS011;13429;48.816;9.118;2023-03-31T04:19:16;4.88;;;2.25;;
25531;SDS011;13429;48.816;9.118;2023-03-31T04:21:42;8.05;;;2.60;;
25531;SDS011;13429;48.816;9.118;2023-03-31T04:24:14;5.45;;;2.60;;
25531;SDS011;13429;48.816;9.118;2023-03-31T04:26:45;7.63;;;2.47;;
25531;SDS011;13429;48.816;9.118;2023-03-31T04:29:14;5.68;;;2.20;;
25531;SDS011;13429;48.816;9.118;2023-03-31T04:31:44;5.97;;;2.60;;
25531;SDS011;13429;48.816;9.118;2023-03-31T04:34:13;10.07;;;2.80;;
25531;SDS011;13429;48.816;9.118;2023-03-31T04:36:40;11.52;;;3.17;;
25531;SDS011;13429;48.816;9.118;2023-03-31T04:39:11;8.32;;;3.30;;
25531;SDS011;13429;48.816;9.118;2023-03-31T04:41:37;9.07;;;2.97;;
25531;SDS011;13429;48.816;9.118;2023-03-31T04:44:03;9.55;;;3.40;;
25531;SDS011;13429;48.816;9.118;2023-03-31T04:46:29;5.57;;;2.63;;
25531;SDS011;13429;48.816;9.118;2023-03-31T04:48:55;7.85;;;2.28;;
25531;SDS011;13429;48.816;9.118;2023-03-31T04:51:23;8.63;;;3.03;;
25531;SDS011;13429;48.816;9.118;2023-03-31T04:53:49;11.48;;;3.67;;
25531;SDS011;13429;48.816;9.118;2023-03-31T04:56:15;7.60;;;3.25;;
25531;SDS011;13429;48.816;9.118;2023-03-31T04:58:41;11.05;;;2.80;;
25531;SDS011;13429;48.816;9.118;2023-03-31T05:01:08;8.23;;;3.17;;
25531;SDS011;13429;48.816;9.118;2023-03-31T05:03:37;12.18;;;3.90;;
25531;SDS011;13429;48.816;9.118;2023-03-31T05:06:03;7.93;;;4.20;;
25531;SDS011;13429;48.816;9.118;2023-03-31T05:08:30;10.15;;;3.35;;
25531;SDS011;13429;48.816;9.118;2023-03-31T05:10:56;7.60;;;3.50;;
25531;SDS011;13429;48.816;9.118;2023-03-31T05:13:22;7.72;;;3.72;;
25531;SDS011;13429;48.816;9.118;2023-03-31T05:15:48;8.18;;;3.53;;
25531;SDS011;13429;48.816;9.118;2023-03-31T05:18:16;8.77;;;3.67;;
25531;SDS011;13429;48.816;9.118;2023-03-31T05:20:42;9.95;;;3.30;;
25531;SDS011;13429;48.816;9.118;2023-03-31T05:23:08;14.80;;;4.43;;
25531;SDS011;13429;48.816;9.118;2023-03-31T05:25:34;11.85;;;4.45;;
25531;SDS011;13429;48.816;9.118;2023-03-31T05:28:00;11.02;;;3.67;;
25531;SDS011;13429;48.816;9.118;2023-03-31T05:30:27;11.70;;;4.70;;
25531;SDS011;13429;48.816;9.118;2023-03-31T05:32:53;14.00;;;4.25;;
25531;SDS011;13429;48.816;9.118;2023-03-31T05:35:20;10.60;;;3.90;;
25531;SDS011;13429;48.816;9.118;2023-03-31T05:37:46;9.70;;;3.88;;
25531;SDS011;13429;48.816;9.118;2023-03-31T05:40:12;10.95;;;5.20;;
25531;SDS011;13429;48.816;9.118;2023-03-31T05:42:38;8.60;;;4.20;;
25531;SDS011;13429;48.816;9.118;2023-03-31T05:45:04;9.05;;;4.07;;
25531;SDS011;13429;48.816;9.118;2023-03-31T05:47:30;8.45;;;3.58;;
25531;SDS011;13429;48.816;9.118;2023-03-31T05:49:57;23.77;;;9.73;;
25531;SDS011;13429;48.816;9.118;2023-03-31T05:52:23;9.90;;;5.20;;
25531;SDS011;13429;48.816;9.118;2023-03-31T05:54:49;7.88;;;4.50;;
25531;SDS011;13429;48.816;9.118;2023-03-31T05:57:15;7.38;;;3.63;;
25531;SDS011;13429;48.816;9.118;2023-03-31T05:59:41;10.35;;;3.83;;
25531;SDS011;13429;48.816;9.118;2023-03-31T06:02:09;9.50;;;5.15;;
25531;SDS011;13429;48.816;9.118;2023-03-31T06:04:37;9.85;;;4.55;;
25531;SDS011;13429;48.816;9.118;2023-03-31T06:07:03;14.00;;;4.43;;
25531;SDS011;13429;48.816;9.118;2023-03-31T06:09:30;7.13;;;3.88;;
25531;SDS011;13429;48.816;9.118;2023-03-31T06:11:56;12.05;;;5.43;;
25531;SDS011;13429;48.816;9.118;2023-03-31T06:14:22;11.77;;;4.97;;
25531;SDS011;13429;48.816;9.118;2023-03-31T06:16:48;10.45;;;4.40;;
25531;SDS011;13429;48.816;9.118;2023-03-31T06:19:14;11.57;;;4.28;;
25531;SDS011;13429;48.816;9.118;2023-03-31T06:21:40;10.73;;;4.82;;
25531;SDS011;13429;48.816;9.118;2023-03-31T06:24:07;10.93;;;5.50;;
25531;SDS011;13429;48.816;9.118;2023-03-31T06:26:33;9.63;;;4.45;;
25531;SDS011;13429;48.816;9.118;2023-03-31T06:28:59;14.63;;;5.22;;
25531;SDS011;13429;48.816;9.118;2023-03-31T06:31:25;9.32;;;4.63;;
25531;SDS011;13429;48.816;9.118;2023-03-31T06:33:52;9.13;;;4.47;;
25531;SDS011;13429;48.816;9.118;2023-03-31T06:36:19;11.85;;;4.63;;
25531;SDS011;13429;48.816;9.118;2023-03-31T06:38:46;17.30;;;5.03;;
25531;SDS011;13429;48.816;9.118;2023-03-31T06:41:13;7.72;;;4.07;;
25531;SDS011;13429;48.816;9.118;2023-03-31T06:43:39;8.48;;;4.03;;
25531;SDS011;13429;48.816;9.118;2023-03-31T06:46:05;9.77;;;4.53;;
25531;SDS011;13429;48.816;9.118;2023-03-31T06:48:32;8.85;;;4.55;;
25531;SDS011;13429;48.816;9.118;2023-03-31T06:50:58;11.68;;;4.85;;
25531;SDS011;13429;48.816;9.118;2023-03-31T06:53:25;13.07;;;5.18;;
25531;SDS011;13429;48.816;9.118;2023-03-31T06:55:51;13.45;;;5.53;;
25531;SDS011;13429;48.816;9.118;2023-03-31T06:58:17;10.05;;;5.45;;
25531;SDS011;13429;48.816;9.118;2023-03-31T07:00:43;18.58;;;5.60;;
25531;SDS011;13429;48.816;9.118;2023-03-31T07:03:12;15.13;;;5.63;;
25531;SDS011;13429;48.816;9.118;2023-03-31T07:05:40;13.60;;;6.32;;
25531;SDS011;13429;48.816;9.118;2023-03-31T07:08:06;14.48;;;5.45;;
25531;SDS011;13429;48.816;9.118;2023-03-31T07:10:32;14.70;;;6.65;;
25531;SDS011;13429;48.816;9.118;2023-03-31T07:12:58;10.35;;;4.95;;
25531;SDS011;13429;48.816;9.118;2023-03-31T07:15:25;8.07;;;5.15;;
25531;SDS011;13429;48.816;9.118;2023-03-31T07:17:54;11.75;;;4.93;;
25531;SDS011;13429;48.816;9.118;2023-03-31T07:20:26;10.02;;;4.22;;
25531;SDS011;13429;48.816;9.118;2023-03-31T07:22:53;7.10;;;3.35;;
25531;SDS011;13429;48.816;9.118;2023-03-31T07:25:19;9.85;;;4.60;;
25531;SDS011;13429;48.816;9.118;2023-03-31T07:27:45;8.90;;;3.75;;
25531;SDS011;13429;48.816;9.118;2023-03-31T07:30:13;4.80;;;3.15;;
25531;SDS011;13429;48.816;9.118;2023-03-31T07:32:40;5.97;;;3.25;;
25531;SDS011;13429;48.816;9.118;2023-03-31T07:35:06;4.97;;;2.17;;
25531;SDS011;13429;48.816;9.118;2023-03-31T07:37:41;3.80;;;2.30;;
25531;SDS011;13429;48.816;9.118;2023-03-31T07:40:08;5.40;;;2.95;;
25531;SDS011;13429;48.816;9.118;2023-03-31T07:42:35;3.08;;;1.75;;
25531;SDS011;13429;48.816;9.118;2023-03-31T07:45:01;3.78;;;1.70;;
25531;SDS011;13429;48.816;9.118;2023-03-31T07:47:30;3.75;;;2.03;;
25531;SDS011;13429;48.816;9.118;2023-03-31T07:49:56;2.13;;;1.50;;
25531;SDS011;13429;48.816;9.118;2023-03-31T07:52:22;6.15;;;1.58;;
25531;SDS011;13429;48.816;9.118;2023-03-31T07:54:48;2.83;;;1.30;;
25531;SDS011;13429;48.816;9.118;2023-03-31T07:57:15;2.70;;;1.10;;
25531;SDS011;13429;48.816;9.118;2023-03-31T07:59:44;3.00;;;1.33;;
25531;SDS011;13429;48.816;9.118;2023-03-31T08:02:11;3.80;;;1.30;;
25531;SDS011;13429;48.816;9.118;2023-03-31T08:04:37;4.88;;;1.20;;
25531;SDS011;13429;48.816;9.118;2023-03-31T08:07:06;4.35;;;1.23;;
25531;SDS011;13429;48.816;9.118;2023-03-31T08:09:32;3.08;;;1.13;;
25531;SDS011;13429;48.816;9.118;2023-03-31T08:11:58;2.08;;;1.00;;
25531;SDS011;13429;48.816;9.118;2023-03-31T08:14:24;2.30;;;1.10;;
25531;SDS011;13429;48.816;9.118;2023-03-31T08:16:50;6.68;;;1.70;;
25531;SDS011;13429;48.816;9.118;2023-03-31T08:19:19;3.47;;;1.27;;
25531;SDS011;13429;48.816;9.118;2023-03-31T08:21:46;5.95;;;1.25;;
25531;SDS011;13429;48.816;9.118;2023-03-31T08:24:12;9.60;;;1.55;;
25531;SDS011;13429;48.816;9.118;2023-03-31T08:26:39;3.83;;;1.27;;
25531;SDS011;13429;48.816;9.118;2023-03-31T08:29:06;3.45;;;1.30;;
25531;SDS011;13429;48.816;9.118;2023-03-31T08:31:32;4.00;;;1.42;;
25531;SDS011;13429;48.816;9.118;2023-03-31T08:33:58;3.50;;;1.52;;
25531;SDS011;13429;48.816;9.118;2023-03-31T08:36:24;9.52;;;1.92;;
25531;SDS011;13429;48.816;9.118;2023-03-31T08:38:54;3.03;;;1.40;;
25531;SDS011;13429;48.816;9.118;2023-03-31T08:41:35;5.90;;;1.67;;
25531;SDS011;13429;48.816;9.118;2023-03-31T08:44:04;3.55;;;0.80;;
25531;SDS011;13429;48.816;9.118;2023-03-31T08:46:32;7.40;;;1.10;;
25531;SDS011;13429;48.816;9.118;2023-03-31T08:48:59;2.58;;;1.30;;
25531;SDS011;13429;48.816;9.118;2023-03-31T08:51:27;2.78;;;1.40;;
25531;SDS011;13429;48.816;9.118;2023-03-31T08:56:23;3.20;;;1.08;;
25531;SDS011;13429;48.816;9.118;2023-03-31T08:58:51;3.72;;;1.10;;
25531;SDS011;13429;48.816;9.118;2023-03-31T09:09:05;4.10;;;1.10;;
25531;SDS011;13429;48.816;9.118;2023-03-31T09:11:39;5.15;;;1.17;;
25531;SDS011;13429;48.816;9.118;2023-03-31T09:16:44;4.65;;;1.20;;
25531;SDS011;13429;48.816;9.118;2023-03-31T09:19:17;4.97;;;1.80;;
25531;SDS011;13429;48.816;9.118;2023-03-31T09:21:47;6.68;;;1.60;;
25531;SDS011;13429;48.816;9.118;2023-03-31T09:26:41;6.03;;;1.23;;
25531;SDS011;13429;48.816;9.118;2023-03-31T09:29:12;4.10;;;1.10;;
25531;SDS011;13429;48.816;9.118;2023-03-31T09:31:43;6.07;;;1.52;;
25531;SDS011;13429;48.816;9.118;2023-03-31T09:34:14;7.07;;;1.30;;
25531;SDS011;13429;48.816;9.118;2023-03-31T09:36:40;4.20;;;1.20;;
25531;SDS011;13429;48.816;9.118;2023-03-31T09:39:09;10.38;;;1.30;;
25531;SDS011;13429;48.816;9.118;2023-03-31T09:41:37;5.97;;;1.35;;
25531;SDS011;13429;48.816;9.118;2023-03-31T09:44:04;4.88;;;1.20;;
25531;SDS011;13429;48.816;9.118;2023-03-31T09:46:36;4.22;;;1.45;;
25531;SDS011;13429;48.816;9.118;2023-03-31T09:49:03;7.38;;;1.63;;
25531;SDS011;13429;48.816;9.118;2023-03-31T09:51:33;3.28;;;1.10;;
25531;SDS011;13429;48.816;9.118;2023-03-31T09:56:31;8.73;;;1.60;;
25531;SDS011;13429;48.816;9.118;2023-03-31T09:59:01;9.73;;;1.38;;
25531;SDS011;13429;48.816;9.118;2023-03-31T10:01:27;8.45;;;1.67;;
25531;SDS011;13429;48.816;9.118;2023-03-31T10:03:54;5.80;;;1.65;;
25531;SDS011;13429;48.816;9.118;2023-03-31T10:06:22;6.65;;;1.83;;
25531;SDS011;13429;48.816;9.118;2023-03-31T10:11:14;6.53;;;1.55;;
25531;SDS011;13429;48.816;9.118;2023-03-31T10:16:14;9.35;;;1.88;;
25531;SDS011;13429;48.816;9.118;2023-03-31T10:18:46;5.72;;;1.50;;
25531;SDS011;13429;48.816;9.118;2023-03-31T10:21:24;4.38;;;1.25;;
25531;SDS011;13429;48.816;9.118;2023-03-31T10:23:51;6.00;;;1.25;;
25531;SDS011;13429;48.816;9.118;2023-03-31T10:26:21;7.15;;;1.92;;
25531;SDS011;13429;48.816;9.118;2023-03-31T10:28:49;8.27;;;1.60;;
25531;SDS011;13429;48.816;9.118;2023-03-31T10:31:19;5.95;;;1.27;;
25531;SDS011;13429;48.816;9.118;2023-03-31T10:33:49;5.83;;;1.17;;
25531;SDS011;13429;48.816;9.118;2023-03-31T10:38:43;5.38;;;1.33;;
25531;SDS011;13429;48.816;9.118;2023-03-31T10:41:09;8.23;;;1.30;;
25531;SDS011;13429;48.816;9.118;2023-03-31T10:43:37;5.22;;;2.20;;
25531;SDS011;13429;48.816;9.118;2023-03-31T10:46:05;7.45;;;1.63;;
25531;SDS011;13429;48.816;9.118;2023-03-31T10:48:32;4.35;;;1.20;;
25531;SDS011;13429;48.816;9.118;2023-03-31T10:51:10;8.20;;;1.63;;
25531;SDS011;13429;48.816;9.118;2023-03-31T10:53:47;6.97;;;1.88;;
25531;SDS011;13429;48.816;9.118;2023-03-31T11:15:29;6.95;;;1.35;;
25531;SDS011;13429;48.816;9.118;2023-03-31T11:20:52;5.18;;;1.08;;
25531;SDS011;13429;48.816;9.118;2023-03-31T11:26:05;3.53;;;0.70;;
25531;SDS011;13429;48.816;9.118;2023-03-31T11:28:56;2.45;;;0.50;;
25531;SDS011;13429;48.816;9.118;2023-03-31T11:36:37;2.28;;;0.52;;
25531;SDS011;13429;48.816;9.118;2023-03-31T11:41:42;3.10;;;0.55;;
25531;SDS011;13429;48.816;9.118;2023-03-31T11:44:10;1.83;;;0.40;;
25531;SDS011;13429;48.816;9.118;2023-03-31T11:49:03;3.53;;;0.50;;
25531;SDS011;13429;48.816;9.118;2023-03-31T11:51:43;1.38;;;0.50;;
25531;SDS011;13429;48.816;9.118;2023-03-31T11:54:16;0.80;;;0.25;;
25531;SDS011;13429;48.816;9.118;2023-03-31T11:56:43;1.80;;;0.55;;
25531;SDS011;13429;48.816;9.118;2023-03-31T11:59:10;1.70;;;0.30;;
25531;SDS011;13429;48.816;9.118;2023-03-31T12:06:59;2.95;;;0.20;;
25531;SDS011;13429;48.816;9.118;2023-03-31T12:09:36;1.15;;;0.30;;
25531;SDS011;13429;48.816;9.118;2023-03-31T12:14:34;0.75;;;0.17;;
25531;SDS011;13429;48.816;9.118;2023-03-31T12:17:17;1.17;;;0.13;;
25531;SDS011;13429;48.816;9.118;2023-03-31T12:19:53;0.25;;;0.10;;
25531;SDS011;13429;48.816;9.118;2023-03-31T12:22:29;2.03;;;0.30;;
25531;SDS011;13429;48.816;9.118;2023-03-31T12:24:56;0.52;;;0.28;;
25531;SDS011;13429;48.816;9.118;2023-03-31T12:27:24;5.40;;;0.52;;
25531;SDS011;13429;48.816;9.118;2023-03-31T12:43:48;1.55;;;0.40;;
25531;SDS011;13429;48.816;9.118;2023-03-31T12:48:43;1.45;;;0.47;;
25531;SDS011;13429;48.816;9.118;2023-03-31T12:51:19;1.75;;;0.70;;
25531;SDS011;13429;48.816;9.118;2023-03-31T12:56:16;4.30;;;0.50;;
25531;SDS011;13429;48.816;9.118;2023-03-31T12:58:43;5.80;;;0.47;;
25531;SDS011;13429;48.816;9.118;2023-03-31T13:01:14;3.45;;;0.80;;
25531;SDS011;13429;48.816;9.118;2023-03-31T13:06:11;7.85;;;1.73;;
25531;SDS011;13429;48.816;9.118;2023-03-31T13:08:57;6.82;;;1.00;;
25531;SDS011;13429;48.816;9.118;2023-03-31T13:14:20;7.75;;;1.05;;
25531;SDS011;13429;48.816;9.118;2023-03-31T13:16:47;4.22;;;1.00;;
25531;SDS011;13429;48.816;9.118;2023-03-31T13:19:27;6.35;;;1.42;;
25531;SDS011;13429;48.816;9.118;2023-03-31T13:24:24;2.30;;;0.80;;
25531;SDS011;13429;48.816;9.118;2023-03-31T13:26:50;4.38;;;0.70;;
25531;SDS011;13429;48.816;9.118;2023-03-31T13:34:29;2.42;;;0.60;;
25531;SDS011;13429;48.816;9.118;2023-03-31T13:49:54;1.38;;;0.13;;
25531;SDS011;13429;48.816;9.118;2023-03-31T13:52:35;0.95;;;0.20;;
25531;SDS011;13429;48.816;9.118;2023-03-31T14:13:42;1.15;;;0.10;;
25531;SDS011;13429;48.816;9.118;2023-03-31T14:16:08;4.72;;;0.52;;
25531;SDS011;13429;48.816;9.118;2023-03-31T14:18:35;0.95;;;0.30;;
25531;SDS011;13429;48.816;9.118;2023-03-31T14:31:13;6.25;;;0.38;;
25531;SDS011;13429;48.816;9.118;2023-03-31T14:36:35;1.45;;;0.60;;
25531;SDS011;13429;48.816;9.118;2023-03-31T14:39:04;0.93;;;0.32;;
25531;SDS011;13429;48.816;9.118;2023-03-31T14:41:31;7.18;;;0.80;;
25531;SDS011;13429;48.816;9.118;2023-03-31T14:43:59;2.53;;;0.35;;
25531;SDS011;13429;48.816;9.118;2023-03-31T14:46:29;1.75;;;0.45;;
25531;SDS011;13429;48.816;9.118;2023-03-31T14:49:03;2.97;;;0.35;;
25531;SDS011;13429;48.816;9.118;2023-03-31T14:51:30;0.82;;;0.32;;
25531;SDS011;13429;48.816;9.118;2023-03-31T14:54:00;3.63;;;0.60;;
25531;SDS011;13429;48.816;9.118;2023-03-31T14:56:30;1.88;;;0.28;;
25531;SDS011;13429;48.816;9.118;2023-03-31T14:58:58;2.22;;;0.38;;
25531;SDS011;13429;48.816;9.118;2023-03-31T15:01:28;3.83;;;0.47;;
25531;SDS011;13429;48.816;9.118;2023-03-31T15:03:58;1.30;;;0.32;;
25531;SDS011;13429;48.816;9.118;2023-03-31T15:06:24;0.85;;;0.30;;
25531;SDS011;13429;48.816;9.118;2023-03-31T15:08:51;1.33;;;0.60;;
25531;SDS011;13429;48.816;9.118;2023-03-31T15:11:19;2.03;;;0.60;;
25531;SDS011;13429;48.816;9.118;2023-03-31T15:13:55;1.70;;;0.60;;
25531;SDS011;13429;48.816;9.118;2023-03-31T15:16:29;2.53;;;0.47;;
25531;SDS011;13429;48.816;9.118;2023-03-31T15:18:57;4.25;;;0.68;;
25531;SDS011;13429;48.816;9.118;2023-03-31T15:21:24;5.32;;;0.55;;
25531;SDS011;13429;48.816;9.118;2023-03-31T15:23:51;2.30;;;0.43;;
25531;SDS011;13429;48.816;9.118;2023-03-31T15:26:17;2.60;;;0.50;;
25531;SDS011;13429;48.816;9.118;2023-03-31T15:28:52;3.10;;;0.40;;
25531;SDS011;13429;48.816;9.118;2023-03-31T15:31:19;4.40;;;0.70;;
25531;SDS011;13429;48.816;9.118;2023-03-31T15:33:46;2.92;;;0.50;;
25531;SDS011;13429;48.816;9.118;2023-03-31T15:36:12;1.98;;;0.52;;
25531;SDS011;13429;48.816;9.118;2023-03-31T15:38:39;4.20;;;0.68;;
25531;SDS011;13429;48.816;9.118;2023-03-31T15:41:12;2.28;;;0.60;;
25531;SDS011;13429;48.816;9.118;2023-03-31T15:46:24;1.80;;;0.60;;
25531;SDS011;13429;48.816;9.118;2023-03-31T15:48:54;1.48;;;0.68;;
25531;SDS011;13429;48.816;9.118;2023-03-31T15:51:25;4.80;;;0.45;;
25531;SDS011;13429;48.816;9.118;2023-03-31T15:53:53;2.20;;;0.60;;
25531;SDS011;13429;48.816;9.118;2023-03-31T16:01:43;5.28;;;0.82;;
25531;SDS011;13429;48.816;9.118;2023-03-31T16:04:11;2.22;;;0.70;;
25531;SDS011;13429;48.816;9.118;2023-03-31T16:09:21;1.27;;;0.40;;
25531;SDS011;13429;48.816;9.118;2023-03-31T16:11:49;2.00;;;0.50;;
25531;SDS011;13429;48.816;9.118;2023-03-31T16:14:18;1.80;;;0.57;;
25531;SDS011;13429;48.816;9.118;2023-03-31T16:16:50;2.25;;;0.43;;
25531;SDS011;13429;48.816;9.118;2023-03-31T16:19:18;2.88;;;0.60;;
25531;SDS011;13429;48.816;9.118;2023-03-31T16:21:46;2.95;;;1.00;;
25531;SDS011;13429;48.816;9.118;2023-03-31T16:24:16;2.92;;;0.80;;
25531;SDS011;13429;48.816;9.118;2023-03-31T16:26:43;2.88;;;0.65;;
25531;SDS011;13429;48.816;9.118;2023-03-31T16:29:09;2.83;;;0.60;;
25531;SDS011;13429;48.816;9.118;2023-03-31T16:31:43;5.15;;;0.70;;
25531;SDS011;13429;48.816;9.118;2023-03-31T16:34:10;1.80;;;0.50;;
25531;SDS011;13429;48.816;9.118;2023-03-31T16:36:36;30.50;;;10.85;;
25531;SDS011;13429;48.816;9.118;2023-03-31T16:39:03;7.95;;;1.80;;
25531;SDS011;13429;48.816;9.118;2023-03-31T16:41:32;2.95;;;1.10;;
25531;SDS011;13429;48.816;9.118;2023-03-31T16:43:59;2.10;;;0.40;;
25531;SDS011;13429;48.816;9.118;2023-03-31T16:46:25;3.30;;;0.98;;
25531;SDS011;13429;48.816;9.118;2023-03-31T16:48:51;1.63;;;0.55;;
25531;SDS011;13429;48.816;9.118;2023-03-31T16:51:17;3.47;;;0.40;;
25531;SDS011;13429;48.816;9.118;2023-03-31T16:53:43;3.83;;;1.30;;
25531;SDS011;13429;48.816;9.118;2023-03-31T16:56:10;1.70;;;0.50;;
25531;SDS011;13429;48.816;9.118;2023-03-31T16:58:38;0.77;;;0.28;;
25531;SDS011;13429;48.816;9.118;2023-03-31T17:01:04;2.55;;;0.50;;
25531;SDS011;13429;48.816;9.118;2023-03-31T17:03:31;2.15;;;0.45;;
25531;SDS011;13429;48.816;9.118;2023-03-31T17:06:02;1.88;;;0.40;;
25531;SDS011;13429;48.816;9.118;2023-03-31T17:10:58;1.00;;;0.30;;
25531;SDS011;13429;48.816;9.118;2023-03-31T17:13:26;0.43;;;0.20;;
25531;SDS011;13429;48.816;9.118;2023-03-31T17:15:52;0.45;;;0.20;;
25531;SDS011;13429;48.816;9.118;2023-03-31T17:18:19;1.55;;;0.30;;
25531;SDS011;13429;48.816;9.118;2023-03-31T17:20:45;1.25;;;0.40;;
25531;SDS011;13429;48.816;9.118;2023-03-31T17:23:11;0.50;;;0.30;;
25531;SDS011;13429;48.816;9.118;2023-03-31T17:25:37;0.95;;;0.30;;
25531;SDS011;13429;48.816;9.118;2023-03-31T17:28:04;1.00;;;0.50;;
25531;SDS011;13429;48.816;9.118;2023-03-31T17:30:30;1.42;;;0.70;;
25531;SDS011;13429;48.816;9.118;2023-03-31T17:32:58;2.08;;;0.43;;
25531;SDS011;13429;48.816;9.118;2023-03-31T17:35:24;1.35;;;0.43;;
25531;SDS011;13429;48.816;9.118;2023-03-31T17:37:50;3.35;;;0.60;;
25531;SDS011;13429;48.816;9.118;2023-03-31T17:40:18;2.42;;;0.40;;
25531;SDS011;13429;48.816;9.118;2023-03-31T17:42:44;3.50;;;0.57;;
25531;SDS011;13429;48.816;9.118;2023-03-31T17:45:11;2.33;;;0.60;;
25531;SDS011;13429;48.816;9.118;2023-03-31T17:47:38;3.17;;;0.70;;
25531;SDS011;13429;48.816;9.118;2023-03-31T17:50:04;2.45;;;0.60;;
25531;SDS011;13429;48.816;9.118;2023-03-31T17:52:30;1.55;;;0.50;;
25531;SDS011;13429;48.816;9.118;2023-03-31T17:54:57;2.60;;;0.70;;
25531;SDS011;13429;48.816;9.118;2023-03-31T17:57:23;2.03;;;0.98;;
25531;SDS011;13429;48.816;9.118;2023-03-31T17:59:49;1.90;;;0.70;;
25531;SDS011;13429;48.816;9.118;2023-03-31T18:02:15;2.72;;;1.20;;
25531;SDS011;13429;48.816;9.118;2023-03-31T18:04:42;4.70;;;0.90;;
25531;SDS011;13429;48.816;9.118;2023-03-31T18:07:08;2.97;;;0.80;;
25531;SDS011;13429;48.816;9.118;2023-03-31T18:09:35;4.32;;;1.42;;
25531;SDS011;13429;48.816;9.118;2023-03-31T18:12:01;2.47;;;0.73;;
25531;SDS011;13429;48.816;9.118;2023-03-31T18:14:27;4.53;;;1.10;;
25531;SDS011;13429;48.816;9.118;2023-03-31T18:16:54;1.00;;;0.60;;
25531;SDS011;13429;48.816;9.118;2023-03-31T18:19:21;1.77;;;0.90;;
25531;SDS011;13429;48.816;9.118;2023-03-31T18:21:48;4.07;;;1.15;;
25531;SDS011;13429;48.816;9.118;2023-03-31T18:24:14;7.60;;;1.30;;